Time;durP1;ratioP1;P1;durP2;ratioP2;P2;SDS_P1;SDS_P2;PMS_P1;PMS_P2;Temp;Humidity;BMP_temperature;BMP_pressure;BME280_temperature;BME280_humidity;BME280_pressure;Samples;Min_cycle;Max_cycle;Signal;HPM_P1;HPM_P2
2022/09/26 00:00:34;;;;;;;;;;;;;;;67.48;0.00;100765.75;5114186;28;19922;-65
2022/09/26 00:03:01;;;;;;;;;;;;;;;69.72;0.00;100763.81;5113937;28;19928;-66
2022/09/26 00:05:27;;;;;;;;;;;;;;;70.88;0.00;100762.47;5114327;28;20057;-65
2022/09/26 00:07:53;;;;;;;;;;;;;;;68.79;0.00;100761.00;5113923;28;19951;-65
2022/09/26 00:10:19;;;;;;;;;;;;;;;68.75;0.00;100754.88;5095755;28;19927;-66
2022/09/26 00:12:46;;;;;;;;;;;;;;;72.80;0.00;100762.38;5113779;28;20000;-66
2022/09/26 00:15:12;;;;;;;;;;;;;;;72.27;0.00;100764.13;5113951;28;19947;-65
2022/09/26 00:17:39;;;;;;;;;;;;;;;74.40;0.00;100770.69;5113938;28;20409;-66
2022/09/26 00:20:05;;;;;;;;;;;;;;;76.44;0.00;100772.91;5113398;28;19924;-65
2022/09/26 00:22:32;;;;;;;;;;;;;;;77.30;0.00;100768.03;5113743;28;19923;-65
2022/09/26 00:24:58;;;;;;;;;;;;;;;78.18;0.00;100765.81;5113979;28;20358;-65
2022/09/26 00:27:24;;;;;;;;;;;;;;;71.23;0.00;100757.56;5113755;28;19926;-65
2022/09/26 00:29:50;;;;;;;;;;;;;;;66.63;0.00;100763.19;5113831;28;19920;-67
2022/09/26 00:32:17;;;;;;;;;;;;;;;72.59;0.00;100761.16;5094948;28;19923;-65
2022/09/26 00:34:43;;;;;;;;;;;;;;;72.18;0.00;100767.63;5113622;28;20449;-66
2022/09/26 00:37:10;;;;;;;;;;;;;;;71.86;0.00;100761.56;5095190;28;19927;-65
2022/09/26 00:39:36;;;;;;;;;;;;;;;72.06;0.00;100768.84;5113978;28;19990;-65
2022/09/26 00:42:03;;;;;;;;;;;;;;;69.54;0.00;100757.94;5113446;28;19920;-67
2022/09/26 00:44:36;;;;;;;;;;;;;;;70.20;0.00;100758.75;5113546;28;19916;-65
2022/09/26 00:47:03;;;;;;;;;;;;;;;68.16;0.00;100767.28;5113615;28;19919;-66
2022/09/26 00:49:30;;;;;;;;;;;;;;;68.92;0.00;100751.09;5095168;28;20409;-64
2022/09/26 00:51:59;;;;;;;;;;;;;;;67.81;0.00;100750.16;5113578;28;19969;-65
2022/09/26 00:54:26;;;;;;;;;;;;;;;67.18;0.00;100762.91;5095537;28;19915;-66
2022/09/26 00:56:55;;;;;;;;;;;;;;;66.50;0.00;100761.06;5113394;28;19987;-65
2022/09/26 00:59:30;;;;;;;;;;;;;;;65.23;0.49;100753.63;5095482;28;19916;-65
2022/09/26 01:01:57;;;;;;;;;;;;;;;63.97;0.90;100761.03;5112825;28;19935;-66
2022/09/26 01:04:26;;;;;;;;;;;;;;;62.57;0.70;100758.72;5113362;28;19957;-66
2022/09/26 01:06:54;;;;;;;;;;;;;;;61.84;1.61;100765.47;5095005;28;19916;-66
2022/09/26 01:09:20;;;;;;;;;;;;;;;60.84;1.18;100766.28;5095043;28;19916;-67
2022/09/26 01:11:47;;;;;;;;;;;;;;;58.95;1.97;100766.88;5113156;28;19920;-65
2022/09/26 01:14:18;;;;;;;;;;;;;;;58.67;2.31;100766.03;5112872;28;20399;-64
2022/09/26 01:16:47;;;;;;;;;;;;;;;58.80;2.17;100767.81;5113155;28;19919;-64
2022/09/26 01:19:34;;;;;;;;;;;;;;;59.01;2.91;100767.34;5112853;28;19951;-65
2022/09/26 01:22:20;;;;;;;;;;;;;;;58.78;1.89;100766.88;5112953;28;19923;-63
2022/09/26 01:25:04;;;;;;;;;;;;;;;58.13;3.39;100767.22;5113076;28;20373;-64
2022/09/26 01:27:34;;;;;;;;;;;;;;;57.49;3.34;100773.41;5113022;28;19981;-65
2022/09/26 01:30:00;;;;;;;;;;;;;;;58.00;2.66;100769.09;5094868;28;20390;-64
2022/09/26 01:32:47;;;;;;;;;;;;;;;58.27;3.34;100769.19;5094434;28;19919;-64
2022/09/26 01:35:20;;;;;;;;;;;;;;;57.60;3.52;100777.22;5094845;28;19920;-64
2022/09/26 01:38:05;;;;;;;;;;;;;;;57.45;3.35;100772.25;5112993;28;20342;-65
2022/09/26 01:40:31;;;;;;;;;;;;;;;57.31;3.04;100774.69;5094983;28;20011;-65
2022/09/26 01:43:05;;;;;;;;;;;;;;;57.45;3.53;100772.25;5094761;28;20346;-65
2022/09/26 01:45:43;;;;;;;;;;;;;;;57.34;3.04;100773.50;5094791;28;19920;-65
2022/09/26 01:48:18;;;;;;;;;;;;;;;56.90;3.32;100778.97;5094853;28;19934;-64
2022/09/26 01:50:51;;;;;;;;;;;;;;;56.78;3.75;100774.94;5094644;28;20332;-64
2022/09/26 01:53:17;;;;;;;;;;;;;;;56.93;3.64;100775.69;5094645;28;20404;-64
2022/09/26 01:55:53;;;;;;;;;;;;;;;56.04;3.49;100779.00;5097769;28;19912;-64
2022/09/26 01:58:24;;;;;;;;;;;;;;;56.56;3.81;100774.44;5098329;28;20291;-66
2022/09/26 02:00:51;;;;;;;;;;;;;;;56.46;4.27;100781.47;5081629;28;19923;-64
2022/09/26 02:03:20;;;;;;;;;;;;;;;56.60;3.56;100776.97;5094930;28;19994;-65
2022/09/26 02:06:04;;;;;;;;;;;;;;;56.12;4.24;100773.91;5096185;28;20006;-64
2022/09/26 02:08:35;;;;;;;;;;;;;;;56.34;4.16;100784.00;5096117;28;19935;-65
2022/09/26 02:11:05;;;;;;;;;;;;;;;56.46;4.09;100775.63;5094734;28;20441;-65
2022/09/26 02:13:38;;;;;;;;;;;;;;;56.10;4.06;100790.47;5094874;28;20293;-65
2022/09/26 02:16:07;;;;;;;;;;;;;;;55.77;3.71;100788.13;5095760;28;20403;-64
2022/09/26 02:18:36;;;;;;;;;;;;;;;56.02;3.71;100787.53;5095536;28;19920;-65
2022/09/26 02:21:13;;;;;;;;;;;;;;;55.93;3.58;100786.00;5094374;28;19930;-66
2022/09/26 02:23:39;;;;;;;;;;;;;;;56.08;4.04;100781.53;5094549;28;19919;-66
2022/09/26 02:26:06;;;;;;;;;;;;;;;55.61;3.72;100783.63;5094377;28;19916;-64
2022/09/26 02:28:35;;;;;;;;;;;;;;;55.62;3.65;100785.19;5095017;28;21530;-67
2022/09/26 02:31:06;;;;;;;;;;;;;;;55.68;3.63;100788.72;5094399;28;19921;-66
2022/09/26 02:33:33;;;;;;;;;;;;;;;55.60;4.47;100793.75;5097433;28;20381;-68
2022/09/26 02:36:00;;;;;;;;;;;;;;;55.63;3.79;100785.97;5097708;28;19923;-65
2022/09/26 02:38:31;;;;;;;;;;;;;;;55.48;3.65;100786.69;5097791;28;20010;-67
2022/09/26 02:41:37;;;;;;;;;;;;;;;55.22;4.38;100787.03;5097177;28;19985;-67
2022/09/26 02:44:07;;;;;;;;;;;;;;;55.30;4.28;100784.91;5077179;28;20003;-67
2022/09/26 02:46:53;;;;;;;;;;;;;;;55.20;4.77;100784.69;5077118;28;19912;-68
2022/09/26 02:49:39;;;;;;;;;;;;;;;55.15;4.44;100794.41;5077263;28;19981;-68
2022/09/26 02:52:07;;;;;;;;;;;;;;;55.35;4.81;100796.41;5076782;28;19926;-66
2022/09/26 02:54:55;;;;;;;;;;;;;;;55.27;5.74;100791.91;5104877;28;19955;-67
2022/09/26 02:57:32;;;;;;;;;;;;;;;55.02;4.72;100795.31;5089758;28;20061;-69
2022/09/26 03:00:01;;;;;;;;;;;;;;;54.94;4.33;100803.22;5097328;28;19928;-68
2022/09/26 03:02:44;;;;;;;;;;;;;;;54.90;4.67;100806.50;5096519;28;19930;-69
2022/09/26 03:05:21;;;;;;;;;;;;;;;54.86;4.77;100805.34;5095597;28;19920;-65
2022/09/26 03:07:51;;;;;;;;;;;;;;;55.07;4.73;100811.84;5085828;28;19927;-65
2022/09/26 03:10:18;;;;;;;;;;;;;;;54.90;5.13;100805.72;5109558;28;20363;-66
2022/09/26 03:12:46;;;;;;;;;;;;;;;54.84;4.69;100810.97;5092256;28;19920;-67
2022/09/26 03:15:13;;;;;;;;;;;;;;;54.81;5.17;100815.81;5114092;28;19923;-67
2022/09/26 03:17:46;;;;;;;;;;;;;;;54.73;4.79;100817.09;5094565;28;20425;-65
2022/09/26 03:20:16;;;;;;;;;;;;;;;54.58;4.40;100818.56;5095379;28;20360;-65
2022/09/26 03:22:43;;;;;;;;;;;;;;;54.42;5.24;100813.25;5082623;28;20010;-65
2022/09/26 03:25:12;;;;;;;;;;;;;;;54.31;5.80;100823.03;5086333;28;19924;-64
2022/09/26 03:27:45;;;;;;;;;;;;;;;54.08;5.71;100830.81;5077522;28;20275;-67
2022/09/26 03:30:13;;;;;;;;;;;;;;;53.94;5.47;100827.94;5088473;28;19920;-64
2022/09/26 03:32:49;;;;;;;;;;;;;;;53.75;5.28;100835.34;5101205;28;19969;-65
2022/09/26 03:35:15;;;;;;;;;;;;;;;53.74;5.33;100837.47;5090301;28;19924;-65
2022/09/26 03:37:42;;;;;;;;;;;;;;;53.66;5.90;100839.47;5084104;28;19920;-68
2022/09/26 03:40:11;;;;;;;;;;;;;;;53.52;6.22;100841.69;5105061;28;19966;-70
2022/09/26 03:42:57;;;;;;;;;;;;;;;53.49;5.51;100842.78;5051926;28;19931;-69
2022/09/26 03:45:24;;;;;;;;;;;;;;;53.44;6.13;100849.53;5085485;28;19923;-66
2022/09/26 03:48:12;;;;;;;;;;;;;;;53.36;6.12;100858.16;5086874;28;19961;-66
2022/09/26 03:50:39;;;;;;;;;;;;;;;53.26;5.58;100848.31;5108311;28;19943;-70
2022/09/26 03:53:06;;;;;;;;;;;;;;;53.23;6.54;100854.47;5082601;28;19924;-68
2022/09/26 03:55:32;;;;;;;;;;;;;;;53.24;7.00;100851.00;5062796;28;20217;-66
2022/09/26 03:58:00;;;;;;;;;;;;;;;53.24;6.38;100848.09;5108380;27;19916;-67
2022/09/26 04:00:32;;;;;;;;;;;;;;;53.09;6.06;100859.53;5086498;28;20011;-67
2022/09/26 04:03:02;;;;;;;;;;;;;;;52.94;6.98;100863.00;5089901;28;20038;-67
2022/09/26 04:05:38;;;;;;;;;;;;;;;52.79;6.80;100856.97;5076246;28;20377;-68
2022/09/26 04:08:06;;;;;;;;;;;;;;;52.94;6.90;100856.41;5076209;28;19971;-67
2022/09/26 04:10:34;;;;;;;;;;;;;;;52.92;6.45;100859.09;5086629;28;20606;-66
2022/09/26 04:13:00;;;;;;;;;;;;;;;52.82;6.52;100856.66;5107396;28;19920;-67
2022/09/26 04:15:28;;;;;;;;;;;;;;;52.78;6.25;100862.00;5111135;27;19988;-68
2022/09/26 04:18:08;;;;;;;;;;;;;;;52.79;6.76;100866.50;5089660;28;19926;-67
2022/09/26 04:20:35;;;;;;;;;;;;;;;52.73;7.00;100865.81;5071998;28;19970;-67
2022/09/26 04:23:02;;;;;;;;;;;;;;;52.68;6.77;100857.19;5069334;28;19970;-68
2022/09/26 04:25:29;;;;;;;;;;;;;;;52.76;6.65;100858.88;5068477;28;20019;-68
2022/09/26 04:27:55;;;;;;;;;;;;;;;52.87;6.92;100862.91;5066144;28;20371;-66
2022/09/26 04:30:29;;;;;;;;;;;;;;;52.81;7.05;100852.19;5066187;28;19924;-67
2022/09/26 04:32:59;;;;;;;;;;;;;;;52.75;6.71;100856.53;5062608;28;19928;-68
2022/09/26 04:35:28;;;;;;;;;;;;;;;52.69;7.06;100865.34;5063156;28;20351;-67
2022/09/26 04:37:55;;;;;;;;;;;;;;;52.56;6.72;100856.63;5055502;28;20395;-67
2022/09/26 04:40:21;;;;;;;;;;;;;;;52.39;6.78;100862.75;5068406;28;20325;-67
2022/09/26 04:42:59;;;;;;;;;;;;;;;52.31;7.03;100858.91;5059205;28;20292;-68
2022/09/26 04:45:26;;;;;;;;;;;;;;;52.37;6.59;100855.94;5063662;28;20054;-67
2022/09/26 04:47:52;;;;;;;;;;;;;;;52.37;6.36;100853.81;5064586;28;20640;-66
2022/09/26 04:50:25;;;;;;;;;;;;;;;52.35;6.46;100864.38;5054768;28;19921;-66
2022/09/26 04:53:05;;;;;;;;;;;;;;;52.35;6.99;100861.50;5057565;28;20593;-65
2022/09/26 04:55:35;;;;;;;;;;;;;;;52.30;6.77;100865.28;5057987;28;19963;-66
2022/09/26 04:58:01;;;;;;;;;;;;;;;52.25;6.64;100861.94;5057662;28;19925;-66
2022/09/26 05:00:29;;;;;;;;;;;;;;;52.22;7.03;100868.03;5057361;28;19924;-66
2022/09/26 05:03:01;;;;;;;;;;;;;;;52.11;6.83;100869.03;5056851;28;19925;-67
2022/09/26 05:05:30;;;;;;;;;;;;;;;52.12;6.60;100864.81;5074915;28;19924;-66
2022/09/26 05:07:56;;;;;;;;;;;;;;;52.14;7.61;100870.81;5067267;28;19968;-65
2022/09/26 05:10:23;;;;;;;;;;;;;;;52.04;7.66;100875.47;5069342;28;19934;-65
2022/09/26 05:12:57;;;;;;;;;;;;;;;51.72;7.16;100878.38;5050159;28;19925;-66
2022/09/26 05:15:24;;;;;;;;;;;;;;;51.93;7.11;100879.34;5064303;28;19960;-68
2022/09/26 05:17:58;;;;;;;;;;;;;;;52.11;7.11;100886.44;5044782;28;19931;-66
2022/09/26 05:20:30;;;;;;;;;;;;;;;51.93;7.81;100893.06;5078109;28;19924;-67
2022/09/26 05:23:03;;;;;;;;;;;;;;;51.83;8.22;100903.47;5081430;28;19985;-66
2022/09/26 05:28:21;;;;;;;;;;;;;;;51.93;7.25;100890.16;5082068;28;19994;-67
2022/09/26 05:30:50;;;;;;;;;;;;;;;51.86;7.50;100899.47;5092446;28;19916;-67
2022/09/26 05:33:20;;;;;;;;;;;;;;;51.64;7.04;100898.47;5087624;28;19942;-66
2022/09/26 05:35:51;;;;;;;;;;;;;;;51.61;7.47;100902.47;5082193;28;19916;-67
2022/09/26 05:38:18;;;;;;;;;;;;;;;51.44;7.08;100899.03;5085784;28;19973;-67
2022/09/26 05:40:56;;;;;;;;;;;;;;;51.29;7.23;100901.56;5090015;28;20386;-69
2022/09/26 05:43:29;;;;;;;;;;;;;;;51.23;7.87;100897.97;5087794;28;19925;-68
2022/09/26 05:45:57;;;;;;;;;;;;;;;51.16;7.21;100901.47;5083534;28;19920;-67
2022/09/26 05:48:26;;;;;;;;;;;;;;;51.12;7.60;100901.00;5091754;28;19919;-66
2022/09/26 05:50:53;;;;;;;;;;;;;;;51.20;7.50;100907.75;5092462;28;19920;-66
2022/09/26 05:53:20;;;;;;;;;;;;;;;51.23;7.40;100906.66;5085486;28;20366;-67
2022/09/26 05:55:49;;;;;;;;;;;;;;;50.93;7.56;100907.53;5081871;28;20037;-68
2022/09/26 05:58:38;;;;;;;;;;;;;;;50.84;7.84;100910.78;5077759;28;19962;-66
2022/09/26 06:01:16;;;;;;;;;;;;;;;50.86;8.05;100913.94;5089791;28;19920;-66
2022/09/26 06:03:44;;;;;;;;;;;;;;;50.95;7.48;100910.66;5084798;28;19955;-66
2022/09/26 06:06:19;;;;;;;;;;;;;;;50.87;7.92;100906.81;5073591;28;19921;-66
2022/09/26 06:08:52;;;;;;;;;;;;;;;50.77;8.16;100906.38;5085178;28;20458;-66
2022/09/26 06:11:44;;;;;;;;;;;;;;;50.79;8.07;100908.72;5069825;28;20018;-66
2022/09/26 06:14:11;;;;;;;;;;;;;;;50.69;7.48;100907.53;5085620;28;20386;-66
2022/09/26 06:16:37;;;;;;;;;;;;;;;50.68;8.00;100903.03;5084339;28;19920;-66
2022/09/26 06:19:04;;;;;;;;;;;;;;;50.68;7.55;100908.84;5088865;28;19959;-66
2022/09/26 06:21:30;;;;;;;;;;;;;;;50.67;8.21;100907.28;5089504;28;19973;-65
2022/09/26 06:24:09;;;;;;;;;;;;;;;50.65;8.14;100907.81;5092908;28;19920;-66
2022/09/26 06:26:36;;;;;;;;;;;;;;;50.45;8.15;100906.16;5097537;28;19920;-66
2022/09/26 06:29:02;;;;;;;;;;;;;;;50.09;8.55;100907.50;5099159;28;19959;-67
2022/09/26 06:31:33;;;;;;;;;;;;;;;50.46;8.22;100909.84;5089569;28;20274;-67
2022/09/26 06:34:10;;;;;;;;;;;;;;;50.35;8.34;100904.94;5108553;28;19919;-66
2022/09/26 06:36:49;;;;;;;;;;;;;;;50.30;8.57;100902.09;5082122;27;19920;-68
2022/09/26 06:39:15;;;;;;;;;;;;;;;50.47;7.89;100903.53;5115064;27;19927;-66
2022/09/26 06:41:43;;;;;;;;;;;;;;;50.88;8.22;100899.69;5095308;27;20430;-66
2022/09/26 06:44:34;;;;;;;;;;;;;;;50.77;7.69;100902.69;5084026;28;19920;-65
2022/09/26 06:47:13;;;;;;;;;;;;;;;51.07;8.07;100896.84;5104715;28;20389;-66
2022/09/26 06:49:40;;;;;;;;;;;;;;;50.98;7.92;100897.19;5086387;28;19920;-65
2022/09/26 06:52:12;;;;;;;;;;;;;;;50.91;8.33;100895.69;5104103;28;19920;-65
2022/09/26 06:54:39;;;;;;;;;;;;;;;51.06;7.58;100898.97;5086553;28;19916;-66
2022/09/26 06:57:05;;;;;;;;;;;;;;;51.49;7.39;100895.25;5087734;28;19966;-65
2022/09/26 06:59:33;;;;;;;;;;;;;;;51.08;7.81;100896.31;5086324;28;19922;-68
2022/09/26 07:02:08;;;;;;;;;;;;;;;51.60;7.50;100895.09;5087455;28;19922;-68
2022/09/26 07:05:11;;;;;;;;;;;;;;;51.67;7.34;100891.56;5043378;28;20021;-65
2022/09/26 07:07:47;;;;;;;;;;;;;;;51.73;7.78;100885.72;5081624;28;19926;-64
2022/09/26 07:10:23;;;;;;;;;;;;;;;51.64;7.92;100883.97;5085734;28;19982;-65
2022/09/26 07:13:04;;;;;;;;;;;;;;;51.60;7.49;100883.50;5104717;28;19970;-67
2022/09/26 07:15:32;;;;;;;;;;;;;;;51.53;7.30;100878.31;5084722;28;20001;-66
2022/09/26 07:18:01;;;;;;;;;;;;;;;51.59;7.60;100876.16;5060206;28;19916;-66
2022/09/26 07:20:39;;;;;;;;;;;;;;;51.40;7.26;100880.41;5076354;28;19963;-65
2022/09/26 07:23:29;;;;;;;;;;;;;;;51.28;7.70;100874.72;5086223;28;19924;-67
2022/09/26 07:25:55;;;;;;;;;;;;;;;51.33;7.61;100870.16;5059622;28;19924;-68
2022/09/26 07:28:22;;;;;;;;;;;;;;;50.88;8.05;100876.53;5076598;28;19927;-65
2022/09/26 07:30:49;;;;;;;;;;;;;;;50.68;7.84;100874.09;5076250;28;19991;-65
2022/09/26 07:33:35;;;;;;;;;;;;;;;50.58;8.50;100875.78;5065164;28;19923;-65
2022/09/26 07:36:08;;;;;;;;;;;;;;;49.71;8.52;100875.44;5076123;28;20389;-65
2022/09/26 07:38:36;;;;;;;;;;;;;;;49.74;9.39;100873.59;5076208;28;19920;-65
2022/09/26 07:41:03;;;;;;;;;;;;;;;50.53;8.19;100882.41;5075906;28;19916;-65
2022/09/26 07:43:33;;;;;;;;;;;;;;;50.90;7.76;100873.88;5076228;28;19981;-65
2022/09/26 07:51:59;;;;;;;;;;;;;;;50.03;8.88;100872.84;5087656;28;19971;-65
2022/09/26 07:54:38;;;;;;;;;;;;;;;50.47;8.67;100863.03;5075861;28;19970;-65
2022/09/26 07:57:23;;;;;;;;;;;;;;;49.78;9.68;100866.19;5094119;28;20381;-65
2022/09/26 08:00:15;;;;;;;;;;;;;;;49.03;9.86;100856.09;5085386;28;19963;-66
2022/09/26 08:03:08;;;;;;;;;;;;;;;49.03;9.90;100858.97;5083264;28;20378;-65
2022/09/26 08:05:37;;;;;;;;;;;;;;;48.94;10.43;100854.25;5095851;28;19927;-64
2022/09/26 08:08:03;;;;;;;;;;;;;;;48.89;10.25;100852.16;5095732;28;20002;-65
2022/09/26 08:11:02;;;;;;;;;;;;;;;48.47;10.76;100859.84;5079438;28;19924;-65
2022/09/26 08:13:47;;;;;;;;;;;;;;;48.84;10.77;100855.84;5114386;28;19927;-65
2022/09/26 08:16:32;;;;;;;;;;;;;;;48.21;10.78;100859.34;5114380;28;19972;-65
2022/09/26 08:19:01;;;;;;;;;;;;;;;48.42;11.15;100849.09;5095636;28;19920;-65
2022/09/26 08:21:30;;;;;;;;;;;;;;;48.73;10.55;100845.91;5078745;28;19949;-65
2022/09/26 08:23:58;;;;;;;;;;;;;;;48.69;11.16;100851.19;5095643;28;20022;-65
2022/09/26 08:26:56;;;;;;;;;;;;;;;49.29;10.65;100839.94;5079255;28;19916;-65
2022/09/26 08:29:30;;;;;;;;;;;;;;;49.13;10.83;100835.03;5095591;28;19923;-64
2022/09/26 08:31:59;;;;;;;;;;;;;;;47.94;11.44;100846.47;5095066;28;19932;-64
2022/09/26 08:34:26;;;;;;;;;;;;;;;48.43;11.18;100844.91;5095304;28;19926;-64
2022/09/26 08:37:19;;;;;;;;;;;;;;;49.28;10.33;100838.34;5113342;28;19919;-65
2022/09/26 08:40:06;;;;;;;;;;;;;;;49.63;9.72;100839.75;5091594;28;19923;-64
2022/09/26 08:43:10;;;;;;;;;;;;;;;49.52;9.71;100834.81;5114056;28;19927;-64
2022/09/26 08:49:24;;;;;;;;;;;;;;;49.32;10.03;100832.31;5095389;28;19923;-65
2022/09/26 08:51:51;;;;;;;;;;;;;;;49.00;10.24;100847.16;5095152;28;19920;-65
2022/09/26 08:54:25;;;;;;;;;;;;;;;49.10;10.12;100830.31;5095005;28;19994;-65
2022/09/26 08:56:55;;;;;;;;;;;;;;;49.30;9.96;100829.97;5095029;28;19974;-65
2022/09/26 08:59:31;;;;;;;;;;;;;;;48.98;10.63;100832.47;5095303;28;19969;-66
2022/09/26 09:01:59;;;;;;;;;;;;;;;49.16;10.18;100833.16;5094637;28;19924;-65
2022/09/26 09:04:37;;;;;;;;;;;;;;;49.16;10.26;100844.72;5096872;28;19922;-65
2022/09/26 09:07:10;;;;;;;;;;;;;;;49.15;10.57;100832.38;5099244;28;20343;-65
2022/09/26 09:09:37;;;;;;;;;;;;;;;49.15;10.55;100840.25;5117706;28;19919;-64
2022/09/26 09:12:32;;;;;;;;;;;;;;;49.04;9.97;100835.34;5117013;28;20413;-64
2022/09/26 09:15:32;;;;;;;;;;;;;;;48.61;10.88;100841.47;5116852;28;19956;-66
2022/09/26 09:18:40;;;;;;;;;;;;;;;48.76;10.29;100831.75;5099249;28;19946;-66
2022/09/26 09:21:45;;;;;;;;;;;;;;;48.75;11.07;100830.16;5067563;28;19924;-66
2022/09/26 09:24:44;;;;;;;;;;;;;;;48.69;10.78;100833.88;5074512;28;19928;-66
2022/09/26 09:27:35;;;;;;;;;;;;;;;48.35;11.04;100838.13;5075360;28;20386;-67
2022/09/26 09:30:08;;;;;;;;;;;;;;;48.06;11.00;100839.41;5047897;28;20401;-66
2022/09/26 09:33:21;;;;;;;;;;;;;;;48.25;11.38;100828.16;5076185;28;19925;-67
2022/09/26 09:36:24;;;;;;;;;;;;;;;48.81;11.17;100828.81;5064002;28;19921;-66
2022/09/26 09:39:17;;;;;;;;;;;;;;;48.99;10.81;100827.47;5075321;28;19924;-66
2022/09/26 09:41:55;;;;;;;;;;;;;;;49.01;11.01;100834.28;5075091;28;19920;-67
2022/09/26 09:44:35;;;;;;;;;;;;;;;49.04;10.50;100820.13;5076115;28;19998;-66
2022/09/26 09:47:06;;;;;;;;;;;;;;;49.00;10.68;100824.06;5074802;28;19921;-66
2022/09/26 09:49:33;;;;;;;;;;;;;;;48.99;10.51;100827.47;5074864;28;19974;-65
2022/09/26 09:52:26;;;;;;;;;;;;;;;48.95;11.11;100815.41;5076151;28;19978;-66
2022/09/26 09:54:54;;;;;;;;;;;;;;;48.91;10.86;100821.44;5074755;28;20297;-65
2022/09/26 09:57:23;;;;;;;;;;;;;;;48.96;10.93;100817.00;5074587;28;19917;-65
2022/09/26 10:00:04;;;;;;;;;;;;;;;48.83;10.46;100808.09;5074533;28;19921;-64
2022/09/26 10:02:53;;;;;;;;;;;;;;;48.81;10.81;100811.50;5075704;28;19928;-64
2022/09/26 10:05:41;;;;;;;;;;;;;;;48.76;10.42;100812.31;5054583;28;20051;-64
2022/09/26 10:08:12;;;;;;;;;;;;;;;48.72;10.79;100815.50;5071191;28;19924;-64
2022/09/26 10:11:22;;;;;;;;;;;;;;;48.72;10.82;100809.72;5055641;28;19973;-65
2022/09/26 10:13:58;;;;;;;;;;;;;;;48.68;10.74;100797.69;5055562;28;19965;-65
2022/09/26 10:17:08;;;;;;;;;;;;;;;48.62;11.01;100804.75;5055225;28;19927;-65
2022/09/26 10:19:42;;;;;;;;;;;;;;;48.45;11.21;100810.53;5056676;28;20264;-66
2022/09/26 10:22:16;;;;;;;;;;;;;;;48.39;11.07;100810.56;5074014;28;19962;-65
2022/09/26 10:24:44;;;;;;;;;;;;;;;48.24;11.69;100815.06;5074300;28;19931;-64
2022/09/26 10:27:22;;;;;;;;;;;;;;;48.23;11.09;100813.47;5057927;28;19912;-66
2022/09/26 10:29:59;;;;;;;;;;;;;;;48.18;11.30;100815.03;5074132;28;19928;-64
2022/09/26 10:32:27;;;;;;;;;;;;;;;48.00;11.31;100813.47;5080349;28;19916;-65
2022/09/26 10:35:18;;;;;;;;;;;;;;;47.87;11.66;100809.56;5093435;28;19923;-64
2022/09/26 10:38:06;;;;;;;;;;;;;;;47.87;11.23;100807.44;5093972;28;20337;-64
2022/09/26 10:40:51;;;;;;;;;;;;;;;47.88;11.36;100817.66;5095274;28;19943;-64
2022/09/26 10:43:19;;;;;;;;;;;;;;;48.00;11.15;100816.38;5094090;28;19920;-65
2022/09/26 10:45:47;;;;;;;;;;;;;;;48.01;11.26;100815.06;5094062;28;20323;-64
2022/09/26 10:48:49;;;;;;;;;;;;;;;47.89;11.29;100806.94;5061139;28;19927;-64
2022/09/26 10:51:44;;;;;;;;;;;;;;;47.87;11.11;100804.56;5065966;28;19920;-65
2022/09/26 10:54:14;;;;;;;;;;;;;;;47.86;11.60;100814.53;5094156;28;20083;-65
2022/09/26 10:56:47;;;;;;;;;;;;;;;47.80;11.63;100816.59;5093717;28;19916;-65
2022/09/26 10:59:16;;;;;;;;;;;;;;;47.91;11.39;100810.84;5093910;28;19972;-65
2022/09/26 11:01:50;;;;;;;;;;;;;;;47.96;11.38;100815.06;5093197;28;20366;-66
2022/09/26 11:05:55;;;;;;;;;;;;;;;47.83;11.61;100822.09;5093650;28;20031;-66
2022/09/26 11:07:32;;;;;;;;;;;;;;;47.85;11.54;100816.59;5075014;28;19975;-66
2022/09/26 11:10:21;;;;;;;;;;;;;;;47.82;10.97;100813.97;5093604;28;20007;-65
2022/09/26 11:13:21;;;;;;;;;;;;;;;47.81;11.27;100818.16;5094421;28;19923;-66
2022/09/26 11:16:01;;;;;;;;;;;;;;;47.62;11.31;100820.00;5093548;28;19927;-66
2022/09/26 11:18:29;;;;;;;;;;;;;;;47.63;11.40;100816.59;5093846;28;19928;-66
2022/09/26 11:21:01;;;;;;;;;;;;;;;47.58;11.01;100820.22;5093364;28;20018;-65
2022/09/26 11:23:40;;;;;;;;;;;;;;;47.67;11.09;100822.09;5093554;28;20311;-66
2022/09/26 11:26:20;;;;;;;;;;;;;;;47.52;11.16;100820.22;5093047;28;19924;-64
2022/09/26 11:28:52;;;;;;;;;;;;;;;47.73;10.84;100817.88;5092904;28;19959;-65
2022/09/26 11:31:29;;;;;;;;;;;;;;;47.76;11.30;100816.88;5093246;28;20386;-65
2022/09/26 11:34:30;;;;;;;;;;;;;;;47.72;11.20;100821.28;5085330;28;19919;-65
2022/09/26 11:37:02;;;;;;;;;;;;;;;47.96;10.76;100824.50;5093131;28;19928;-65
2022/09/26 11:39:53;;;;;;;;;;;;;;;48.07;11.16;100826.56;5093057;28;19920;-65
2022/09/26 11:42:27;;;;;;;;;;;;;;;47.72;10.61;100821.28;5076028;28;20398;-65
2022/09/26 11:44:57;;;;;;;;;;;;;;;47.67;11.23;100824.97;5093056;28;19920;-65
2022/09/26 11:47:24;;;;;;;;;;;;;;;47.93;10.54;100824.72;5094278;28;19948;-65
2022/09/26 11:50:05;;;;;;;;;;;;;;;47.98;10.42;100824.75;5092909;28;19920;-65
2022/09/26 11:53:01;;;;;;;;;;;;;;;47.70;11.03;100835.44;5092814;28;19924;-66
2022/09/26 11:55:49;;;;;;;;;;;;;;;47.31;11.21;100833.25;5093968;28;20039;-65
2022/09/26 11:58:16;;;;;;;;;;;;;;;47.04;11.75;100843.31;5093988;28;19920;-66
2022/09/26 12:00:47;;;;;;;;;;;;;;;47.41;11.18;100848.19;5093853;28;19920;-66
2022/09/26 12:03:46;;;;;;;;;;;;;;;47.51;11.36;100841.69;5093809;28;19926;-65
2022/09/26 12:06:26;;;;;;;;;;;;;;;46.60;12.24;100840.97;5060086;28;19920;-65
2022/09/26 12:08:53;;;;;;;;;;;;;;;47.13;11.09;100830.81;5093655;28;19924;-66
2022/09/26 12:11:19;;;;;;;;;;;;;;;46.98;11.68;100833.88;5093703;28;19916;-66
2022/09/26 12:13:52;;;;;;;;;;;;;;;47.09;11.61;100833.16;5093811;28;19955;-65
2022/09/26 12:16:27;;;;;;;;;;;;;;;46.81;11.65;100841.66;5093741;28;20015;-66
2022/09/26 12:19:15;;;;;;;;;;;;;;;46.69;11.91;100840.00;5096621;28;19973;-65
2022/09/26 12:24:41;;;;;;;;;;;;;;;46.23;11.93;100852.47;5113931;28;20397;-64
2022/09/26 12:27:15;;;;;;;;;;;;;;;46.90;11.79;100845.09;5113869;28;20286;-66
2022/09/26 12:29:47;;;;;;;;;;;;;;;47.20;11.60;100844.72;5095816;28;19927;-65
2022/09/26 12:32:24;;;;;;;;;;;;;;;47.54;10.90;100849.28;5093115;28;19920;-66
2022/09/26 12:35:09;;;;;;;;;;;;;;;47.61;10.99;100855.88;5093853;28;19920;-66
2022/09/26 12:37:52;;;;;;;;;;;;;;;47.40;11.06;100847.41;5093317;28;19920;-67
2022/09/26 12:40:41;;;;;;;;;;;;;;;47.39;11.23;100863.09;5093271;28;19920;-67
2022/09/26 12:43:20;;;;;;;;;;;;;;;47.52;11.25;100865.53;5087201;28;19920;-67
2022/09/26 12:46:02;;;;;;;;;;;;;;;47.73;11.22;100863.19;5103845;28;19959;-65
2022/09/26 12:48:31;;;;;;;;;;;;;;;47.94;11.12;100873.22;5103713;28;19920;-65
2022/09/26 12:51:03;;;;;;;;;;;;;;;47.73;11.08;100863.19;5085248;28;20282;-66
2022/09/26 12:53:44;;;;;;;;;;;;;;;47.76;10.70;100865.84;5101830;28;19920;-68
2022/09/26 12:56:34;;;;;;;;;;;;;;;47.81;11.00;100870.81;5095675;28;19988;-66
2022/09/26 12:59:21;;;;;;;;;;;;;;;47.44;11.11;100867.31;5072842;28;19947;-66
2022/09/26 13:01:56;;;;;;;;;;;;;;;47.39;11.53;100868.84;5102440;28;20071;-65
2022/09/26 13:04:35;;;;;;;;;;;;;;;47.21;11.73;100875.84;5102246;28;19978;-67
2022/09/26 13:07:05;;;;;;;;;;;;;;;47.12;11.86;100873.19;5102016;28;19921;-67
2022/09/26 13:09:44;;;;;;;;;;;;;;;47.49;11.07;100878.06;5102220;28;20366;-66
2022/09/26 13:12:17;;;;;;;;;;;;;;;47.53;11.54;100888.03;5103291;28;19923;-66
2022/09/26 13:14:46;;;;;;;;;;;;;;;47.52;11.16;100889.34;5101252;28;19963;-66
2022/09/26 13:17:23;;;;;;;;;;;;;;;47.46;11.27;100890.63;5104399;28;20006;-65
2022/09/26 13:19:54;;;;;;;;;;;;;;;47.21;11.22;100889.47;5092362;28;20263;-66
2022/09/26 13:22:39;;;;;;;;;;;;;;;46.82;11.50;100878.53;5095641;28;19920;-67
2022/09/26 13:25:17;;;;;;;;;;;;;;;46.43;11.79;100883.22;5110101;28;19920;-67
2022/09/26 13:27:53;;;;;;;;;;;;;;;46.71;11.67;100884.19;5111235;28;19965;-67
2022/09/26 13:30:24;;;;;;;;;;;;;;;46.56;11.58;100893.00;5110018;28;19960;-67
2022/09/26 13:32:55;;;;;;;;;;;;;;;46.78;11.92;100888.72;5113014;28;19926;-68
2022/09/26 13:35:23;;;;;;;;;;;;;;;47.08;11.62;100900.66;5094984;28;19916;-67
2022/09/26 13:37:52;;;;;;;;;;;;;;;47.05;11.67;100896.72;5112624;28;20382;-67